(°C)
-1°
-1°
-1°
(°C)
-5°
-4°
-4°
-4°
-4°
-4°
-5°
NY
NY
NY
NY
NDN
NDN
DDN
(km/h)
13-26
12-26
10-23
8-19
6-15
4-13
4-12
(mm)
0
0
0
0
0
0
0
(%)
0
0
0
0
0
0
0

Napfelkelte

/ 13.2°
sun-icon
UV 0
07:36
16:26
Hold (fogyó félhold) (233°)
00:00
24:00

METAR 64.6°É 40.72°K (ULAA)-ért

Idő Feltételek Hőmérséklet/
Harmatpont
Szél Látási viszonyok Időjárás Felhők Légnyomás Módosítás Nyers
VFR 0°C / -3°C 260º 8kt >10km - Scattered Clouds 1900ft 1015 No Significant change. Runway 26: Wet snow, 51-100% contamination with 5mm, friction coefficient 0.43. ULAA 250800Z 26004MPS 9999 SCT019CB 00/M03 Q1015 R26/590543 NOSIG RMK QFE759/1013
VFR 0°C / -3°C 260º variable 240º to 300º 10kt >10km - Scattered Clouds 1500ft 1015 No Significant change. Runway 26: Wet snow, 51-100% contamination with 5mm, friction coefficient 0.39. ULAA 250730Z 26005MPS 240V300 9999 SCT015CB M00/M03 Q1015 R26/590539 NOSIG RMK QFE759/1013
VFR 0°C / -3°C 270º 10kt >10km - Scattered Clouds 2600ft 1015 No Significant change. Runway 26: Wet snow, 51-100% contamination with 5mm, friction coefficient 0.39. ULAA 250700Z 27005MPS 9999 SCT026 M00/M03 Q1015 R26/590539 NOSIG RMK QFE759/1013
VFR -1°C / -3°C 270º 10kt >10km - Few Clouds 2600ft 1014 No Significant change. Runway 26: Wet snow, 51-100% contamination with 5mm, friction coefficient 0.39. ULAA 250630Z 27005MPS 9999 FEW026 M01/M03 Q1014 R26/590539 NOSIG RMK QFE759/1012
MVFR -1°C / -3°C 270º 12kt >10km - Broken Clouds 1200ft 1014 No Significant change. Runway 26: Wet snow, 51-100% contamination with 5mm, friction coefficient 0.39. ULAA 250600Z 27006MPS 9999 BKN012CB M01/M03 Q1014 R26/590539 NOSIG RMK QFE759/1012
IFR -1°C / -3°C 270º variable 240º to 300º 12kt 9000m Light Showers Snow 3.00mm precipitation Vertical Visibility of 0ft. 1014 No Significant change. Runway 26: Wet snow, 51-100% contamination with 5mm, friction coefficient 0.39. ULAA 250530Z 27006MPS 240V300 9000 -SHSN BKN007CB M01/M03 Q1014 R26/590539 NOSIG RMK QFE759/1012
IFR -1°C / -3°C 270º 12kt 7000m Light Showers Snow 3.00mm precipitation Vertical Visibility of 0ft. 1014 No Significant change. Runway 26: Wet snow, 51-100% contamination with 5mm, friction coefficient 0.39. ULAA 250500Z 27006MPS 7000 -SHSN BKN006CB M01/M03 Q1014 R26/590539 NOSIG RMK QBB180 QFE759/1012
MVFR -1°C / -3°C 260º variable 240º to 030º 12kt 9000m Light Showers Snow 3.00mm precipitation Vertical Visibility of 0ft. 1014 No Significant change. Runway 26: Wet snow, 51-100% contamination with 5mm, friction coefficient 0.39. ULAA 250430Z 26006MPS 240V030 9000 -SHSN BKN010CB M01/M03 Q1014 R26/590539 NOSIG RMK QFE759/1012
IFR -2°C / -3°C 270º variable 240º to 300º 12kt 4900m Light Showers Snow 3.00mm precipitation Vertical Visibility of 0ft. 1014 No Significant change. Runway 26: Wet snow, 51-100% contamination with 5mm, friction coefficient 0.39. ULAA 250400Z 27006MPS 240V300 4900 -SHSN BKN005CB M02/M03 Q1014 R26/590539 NOSIG RMK QBB150 QFE759/1012
MVFR -1°C / -3°C 260º variable 220º to 290º 12kt >10km Light Showers Snow 3.00mm precipitation Vertical Visibility of 0ft. 1014 No Significant change. Runway 26: Wet snow, 51-100% contamination with 5mm, friction coefficient 0.39. ULAA 250330Z 26006MPS 220V290 9999 -SHSN BKN015CB M01/M03 Q1014 R26/590539 NOSIG RMK QFE759/1012
IFR -1°C / -3°C 270º variable 230º to 290º 10kt 8000m Light Showers Snow 3.00mm precipitation Vertical Visibility of 0ft. 1014 No Significant change. Runway 26: Wet snow, 51-100% contamination with 5mm, friction coefficient 0.39. ULAA 250300Z 27005MPS 230V290 8000 -SHSN OVC007CB M01/M03 Q1014 R26/590539 NOSIG RMK QFE759/1012
IFR -1°C / -3°C 260º 8kt 9000m Light Showers Snow 3.00mm precipitation Vertical Visibility of 0ft. 1014 No Significant change. Runway 26: Wet snow, 51-100% contamination with 5mm, friction coefficient 0.39. ULAA 250230Z 26004MPS 9000 -SHSN OVC008CB M01/M03 Q1014 R26/590539 NOSIG RMK QFE759/1012
IFR -1°C / -3°C 270º variable 240º to 310º 10kt 7000m Light Showers Snow 3.00mm precipitation Vertical Visibility of 0ft. 1014 No Significant change. Runway 26: Wet snow, 51-100% contamination with 5mm, friction coefficient 0.39. ULAA 250200Z 27005MPS 240V310 7000 -SHSN OVC007CB M01/M03 Q1014 R26/590539 NOSIG RMK QFE759/1012
IFR -1°C / -3°C 270º variable 230º to 310º 10kt 9000m Light Showers Snow 3.00mm precipitation Vertical Visibility of 0ft. 1014 No Significant change. Runway 26: Wet snow, 51-100% contamination with 5mm, friction coefficient 0.39. ULAA 250130Z 27005MPS 230V310 9000 -SHSN OVC008CB M01/M03 Q1014 R26/590539 NOSIG RMK QFE759/1012
IFR -1°C / -2°C 270º variable 240º to 300º 8kt 7000m Light Showers Snow 3.00mm precipitation Vertical Visibility of 0ft. 1014 No Significant change. Runway 26: Wet snow, 51-100% contamination with 5mm, friction coefficient 0.39. ULAA 250100Z 27004MPS 240V300 7000 -SHSN OVC009CB M01/M02 Q1014 R26/590539 NOSIG RMK QFE759/1012
IFR -1°C / -2°C 270º variable 240º to 300º 10kt 6000m Light Showers Snow 3.00mm precipitation Vertical Visibility of 0ft. 1014 No Significant change. Runway 26: Wet snow, 51-100% contamination with 5mm, friction coefficient 0.39. ULAA 250030Z 27005MPS 240V300 6000 -SHSN OVC007CB M01/M02 Q1014 R26/590539 NOSIG RMK QFE759/1012
MVFR 0°C / -2°C 270º variable 240º to 310º 12kt 9000m Light Showers Snow 3.00mm precipitation Vertical Visibility of 0ft. 1014 No Significant change. Runway 26: Wet snow, 51-100% contamination with 5mm, friction coefficient 0.39. ULAA 250000Z 27006MPS 240V310 9000 -SHSN OVC016CB M00/M02 Q1014 R26/590539 NOSIG RMK QFE759/1012
IFR 0°C / -2°C 270º variable 240º to 300º 10kt 8000m Light Showers Snow 3.00mm precipitation Vertical Visibility of 0ft. 1014 No Significant change. Runway 26: Wet snow, 51-100% contamination with 5mm, friction coefficient 0.39. ULAA 242330Z 27005MPS 240V300 8000 -SHSN OVC009CB M00/M02 Q1014 R26/590539 NOSIG RMK QFE759/1012
MVFR 0°C / -2°C 270º 14kt 9000m Light Showers Snow 3.00mm precipitation Vertical Visibility of 0ft. 1014 No Significant change. Runway 26: Wet snow, 51-100% contamination with 5mm, friction coefficient 0.39. ULAA 242300Z 27007MPS 9000 -SHSN OVC013CB M00/M02 Q1014 R26/590539 NOSIG RMK QFE759/1012
IFR -1°C / -2°C 270º variable 240º to 040º 12kt 6000m Light Showers Snow 3.00mm precipitation Vertical Visibility of 0ft. 1014 No Significant change. Runway 26: Wet snow, 51-100% contamination with 5mm, friction coefficient 0.39. ULAA 242230Z 27006MPS 240V040 6000 -SHSN OVC007CB M01/M02 Q1014 R26/590539 NOSIG RMK QFE759/1012
LIFR -1°C / -3°C 270º variable 240º to 300º 12kt 5000m Light Showers Snow 3.00mm precipitation Vertical Visibility of 0ft. 1013 No Significant change. Runway 26: Wet snow, 51-100% contamination with 3mm, friction coefficient 0.42. ULAA 242200Z 27006MPS 240V300 5000 -SHSN OVC004CB M01/M03 Q1013 R26/590342 NOSIG RMK QBB130 QFE759/1012
MVFR -1°C / -3°C 260º variable 230º to 300º 12kt >10km Light Showers Snow 3.00mm precipitation Vertical Visibility of 0ft. 1013 No Significant change. Runway 26: Wet snow, 51-100% contamination with 3mm, friction coefficient 0.42. ULAA 242130Z 26006MPS 230V300 9999 -SHSN OVC016CB M01/M03 Q1013 R26/590342 NOSIG RMK QFE758/1011
IFR -1°C / -3°C 260º 12kt 8000m Light Showers Snow 3.00mm precipitation Vertical Visibility of 0ft. 1013 No Significant change. Runway 26: Wet snow, 51-100% contamination with 3mm, friction coefficient 0.42. ULAA 242100Z 26006MPS 8000 -SHSN OVC009CB M01/M03 Q1013 R26/590342 NOSIG RMK QFE758/1011
IFR -1°C / -2°C 270º variable 240º to 300º 12kt 4200m Light Showers Snow 3.00mm precipitation Vertical Visibility of 0ft. 1013 No Significant change. Runway 26: Frozen ridges, 11-25% contamination with 3mm, friction coefficient 0.50. ULAA 242030Z 27006MPS 240V300 4200 -SHSN OVC007CB M01/M02 Q1013 R26/920350 NOSIG RMK QFE758/1011

VFR

0°C / -3°C

[Több]
Szél 260º 8kt
Látási viszonyok >10km
Időjárás -
Felhők Scattered Clouds 1900ft
Légnyomás 1015
Módosítás No Significant change. Runway 26: Wet snow, 51-100% contamination with 5mm, friction coefficient 0.43.
Nyers ULAA 250800Z 26004MPS 9999 SCT019CB 00/M03 Q1015 R26/590543 NOSIG RMK QFE759/1013

VFR

0°C / -3°C

[Több]
Szél 260º variable 240º to 300º 10kt
Látási viszonyok >10km
Időjárás -
Felhők Scattered Clouds 1500ft
Légnyomás 1015
Módosítás No Significant change. Runway 26: Wet snow, 51-100% contamination with 5mm, friction coefficient 0.39.
Nyers ULAA 250730Z 26005MPS 240V300 9999 SCT015CB M00/M03 Q1015 R26/590539 NOSIG RMK QFE759/1013

VFR

0°C / -3°C

[Több]
Szél 270º 10kt
Látási viszonyok >10km
Időjárás -
Felhők Scattered Clouds 2600ft
Légnyomás 1015
Módosítás No Significant change. Runway 26: Wet snow, 51-100% contamination with 5mm, friction coefficient 0.39.
Nyers ULAA 250700Z 27005MPS 9999 SCT026 M00/M03 Q1015 R26/590539 NOSIG RMK QFE759/1013

VFR

-1°C / -3°C

[Több]
Szél 270º 10kt
Látási viszonyok >10km
Időjárás -
Felhők Few Clouds 2600ft
Légnyomás 1014
Módosítás No Significant change. Runway 26: Wet snow, 51-100% contamination with 5mm, friction coefficient 0.39.
Nyers ULAA 250630Z 27005MPS 9999 FEW026 M01/M03 Q1014 R26/590539 NOSIG RMK QFE759/1012

MVFR

-1°C / -3°C

[Több]
Szél 270º 12kt
Látási viszonyok >10km
Időjárás -
Felhők Broken Clouds 1200ft
Légnyomás 1014
Módosítás No Significant change. Runway 26: Wet snow, 51-100% contamination with 5mm, friction coefficient 0.39.
Nyers ULAA 250600Z 27006MPS 9999 BKN012CB M01/M03 Q1014 R26/590539 NOSIG RMK QFE759/1012

IFR

-1°C / -3°C

[Több]
Szél 270º variable 240º to 300º 12kt
Látási viszonyok 9000m
Időjárás Light Showers Snow 3.00mm precipitation
Felhők Vertical Visibility of 0ft.
Légnyomás 1014
Módosítás No Significant change. Runway 26: Wet snow, 51-100% contamination with 5mm, friction coefficient 0.39.
Nyers ULAA 250530Z 27006MPS 240V300 9000 -SHSN BKN007CB M01/M03 Q1014 R26/590539 NOSIG RMK QFE759/1012

IFR

-1°C / -3°C

[Több]
Szél 270º 12kt
Látási viszonyok 7000m
Időjárás Light Showers Snow 3.00mm precipitation
Felhők Vertical Visibility of 0ft.
Légnyomás 1014
Módosítás No Significant change. Runway 26: Wet snow, 51-100% contamination with 5mm, friction coefficient 0.39.
Nyers ULAA 250500Z 27006MPS 7000 -SHSN BKN006CB M01/M03 Q1014 R26/590539 NOSIG RMK QBB180 QFE759/1012

MVFR

-1°C / -3°C

[Több]
Szél 260º variable 240º to 030º 12kt
Látási viszonyok 9000m
Időjárás Light Showers Snow 3.00mm precipitation
Felhők Vertical Visibility of 0ft.
Légnyomás 1014
Módosítás No Significant change. Runway 26: Wet snow, 51-100% contamination with 5mm, friction coefficient 0.39.
Nyers ULAA 250430Z 26006MPS 240V030 9000 -SHSN BKN010CB M01/M03 Q1014 R26/590539 NOSIG RMK QFE759/1012

IFR

-2°C / -3°C

[Több]
Szél 270º variable 240º to 300º 12kt
Látási viszonyok 4900m
Időjárás Light Showers Snow 3.00mm precipitation
Felhők Vertical Visibility of 0ft.
Légnyomás 1014
Módosítás No Significant change. Runway 26: Wet snow, 51-100% contamination with 5mm, friction coefficient 0.39.
Nyers ULAA 250400Z 27006MPS 240V300 4900 -SHSN BKN005CB M02/M03 Q1014 R26/590539 NOSIG RMK QBB150 QFE759/1012

MVFR

-1°C / -3°C

[Több]
Szél 260º variable 220º to 290º 12kt
Látási viszonyok >10km
Időjárás Light Showers Snow 3.00mm precipitation
Felhők Vertical Visibility of 0ft.
Légnyomás 1014
Módosítás No Significant change. Runway 26: Wet snow, 51-100% contamination with 5mm, friction coefficient 0.39.
Nyers ULAA 250330Z 26006MPS 220V290 9999 -SHSN BKN015CB M01/M03 Q1014 R26/590539 NOSIG RMK QFE759/1012

IFR

-1°C / -3°C

[Több]
Szél 270º variable 230º to 290º 10kt
Látási viszonyok 8000m
Időjárás Light Showers Snow 3.00mm precipitation
Felhők Vertical Visibility of 0ft.
Légnyomás 1014
Módosítás No Significant change. Runway 26: Wet snow, 51-100% contamination with 5mm, friction coefficient 0.39.
Nyers ULAA 250300Z 27005MPS 230V290 8000 -SHSN OVC007CB M01/M03 Q1014 R26/590539 NOSIG RMK QFE759/1012

IFR

-1°C / -3°C

[Több]
Szél 260º 8kt
Látási viszonyok 9000m
Időjárás Light Showers Snow 3.00mm precipitation
Felhők Vertical Visibility of 0ft.
Légnyomás 1014
Módosítás No Significant change. Runway 26: Wet snow, 51-100% contamination with 5mm, friction coefficient 0.39.
Nyers ULAA 250230Z 26004MPS 9000 -SHSN OVC008CB M01/M03 Q1014 R26/590539 NOSIG RMK QFE759/1012

IFR

-1°C / -3°C

[Több]
Szél 270º variable 240º to 310º 10kt
Látási viszonyok 7000m
Időjárás Light Showers Snow 3.00mm precipitation
Felhők Vertical Visibility of 0ft.
Légnyomás 1014
Módosítás No Significant change. Runway 26: Wet snow, 51-100% contamination with 5mm, friction coefficient 0.39.
Nyers ULAA 250200Z 27005MPS 240V310 7000 -SHSN OVC007CB M01/M03 Q1014 R26/590539 NOSIG RMK QFE759/1012

IFR

-1°C / -3°C

[Több]
Szél 270º variable 230º to 310º 10kt
Látási viszonyok 9000m
Időjárás Light Showers Snow 3.00mm precipitation
Felhők Vertical Visibility of 0ft.
Légnyomás 1014
Módosítás No Significant change. Runway 26: Wet snow, 51-100% contamination with 5mm, friction coefficient 0.39.
Nyers ULAA 250130Z 27005MPS 230V310 9000 -SHSN OVC008CB M01/M03 Q1014 R26/590539 NOSIG RMK QFE759/1012

IFR

-1°C / -2°C

[Több]
Szél 270º variable 240º to 300º 8kt
Látási viszonyok 7000m
Időjárás Light Showers Snow 3.00mm precipitation
Felhők Vertical Visibility of 0ft.
Légnyomás 1014
Módosítás No Significant change. Runway 26: Wet snow, 51-100% contamination with 5mm, friction coefficient 0.39.
Nyers ULAA 250100Z 27004MPS 240V300 7000 -SHSN OVC009CB M01/M02 Q1014 R26/590539 NOSIG RMK QFE759/1012

IFR

-1°C / -2°C

[Több]
Szél 270º variable 240º to 300º 10kt
Látási viszonyok 6000m
Időjárás Light Showers Snow 3.00mm precipitation
Felhők Vertical Visibility of 0ft.
Légnyomás 1014
Módosítás No Significant change. Runway 26: Wet snow, 51-100% contamination with 5mm, friction coefficient 0.39.
Nyers ULAA 250030Z 27005MPS 240V300 6000 -SHSN OVC007CB M01/M02 Q1014 R26/590539 NOSIG RMK QFE759/1012

MVFR

0°C / -2°C

[Több]
Szél 270º variable 240º to 310º 12kt
Látási viszonyok 9000m
Időjárás Light Showers Snow 3.00mm precipitation
Felhők Vertical Visibility of 0ft.
Légnyomás 1014
Módosítás No Significant change. Runway 26: Wet snow, 51-100% contamination with 5mm, friction coefficient 0.39.
Nyers ULAA 250000Z 27006MPS 240V310 9000 -SHSN OVC016CB M00/M02 Q1014 R26/590539 NOSIG RMK QFE759/1012

IFR

0°C / -2°C

[Több]
Szél 270º variable 240º to 300º 10kt
Látási viszonyok 8000m
Időjárás Light Showers Snow 3.00mm precipitation
Felhők Vertical Visibility of 0ft.
Légnyomás 1014
Módosítás No Significant change. Runway 26: Wet snow, 51-100% contamination with 5mm, friction coefficient 0.39.
Nyers ULAA 242330Z 27005MPS 240V300 8000 -SHSN OVC009CB M00/M02 Q1014 R26/590539 NOSIG RMK QFE759/1012

MVFR

0°C / -2°C

[Több]
Szél 270º 14kt
Látási viszonyok 9000m
Időjárás Light Showers Snow 3.00mm precipitation
Felhők Vertical Visibility of 0ft.
Légnyomás 1014
Módosítás No Significant change. Runway 26: Wet snow, 51-100% contamination with 5mm, friction coefficient 0.39.
Nyers ULAA 242300Z 27007MPS 9000 -SHSN OVC013CB M00/M02 Q1014 R26/590539 NOSIG RMK QFE759/1012

IFR

-1°C / -2°C

[Több]
Szél 270º variable 240º to 040º 12kt
Látási viszonyok 6000m
Időjárás Light Showers Snow 3.00mm precipitation
Felhők Vertical Visibility of 0ft.
Légnyomás 1014
Módosítás No Significant change. Runway 26: Wet snow, 51-100% contamination with 5mm, friction coefficient 0.39.
Nyers ULAA 242230Z 27006MPS 240V040 6000 -SHSN OVC007CB M01/M02 Q1014 R26/590539 NOSIG RMK QFE759/1012

LIFR

-1°C / -3°C

[Több]
Szél 270º variable 240º to 300º 12kt
Látási viszonyok 5000m
Időjárás Light Showers Snow 3.00mm precipitation
Felhők Vertical Visibility of 0ft.
Légnyomás 1013
Módosítás No Significant change. Runway 26: Wet snow, 51-100% contamination with 3mm, friction coefficient 0.42.
Nyers ULAA 242200Z 27006MPS 240V300 5000 -SHSN OVC004CB M01/M03 Q1013 R26/590342 NOSIG RMK QBB130 QFE759/1012

MVFR

-1°C / -3°C

[Több]
Szél 260º variable 230º to 300º 12kt
Látási viszonyok >10km
Időjárás Light Showers Snow 3.00mm precipitation
Felhők Vertical Visibility of 0ft.
Légnyomás 1013
Módosítás No Significant change. Runway 26: Wet snow, 51-100% contamination with 3mm, friction coefficient 0.42.
Nyers ULAA 242130Z 26006MPS 230V300 9999 -SHSN OVC016CB M01/M03 Q1013 R26/590342 NOSIG RMK QFE758/1011

IFR

-1°C / -3°C

[Több]
Szél 260º 12kt
Látási viszonyok 8000m
Időjárás Light Showers Snow 3.00mm precipitation
Felhők Vertical Visibility of 0ft.
Légnyomás 1013
Módosítás No Significant change. Runway 26: Wet snow, 51-100% contamination with 3mm, friction coefficient 0.42.
Nyers ULAA 242100Z 26006MPS 8000 -SHSN OVC009CB M01/M03 Q1013 R26/590342 NOSIG RMK QFE758/1011

IFR

-1°C / -2°C

[Több]
Szél 270º variable 240º to 300º 12kt
Látási viszonyok 4200m
Időjárás Light Showers Snow 3.00mm precipitation
Felhők Vertical Visibility of 0ft.
Légnyomás 1013
Módosítás No Significant change. Runway 26: Frozen ridges, 11-25% contamination with 3mm, friction coefficient 0.50.
Nyers ULAA 242030Z 27006MPS 240V300 4200 -SHSN OVC007CB M01/M02 Q1013 R26/920350 NOSIG RMK QFE758/1011

TAF 64.6°É 40.72°K (ULAA)-ért

From till


From till Wind 250º 8kt. Gust 17kt. Visibility 6000m. Light Showers Snow . Broken Clouds 500ft. Broken Clouds 1600ft.
Temporarly from till Wind 210º 10kt. Gust 23kt. Visibility 804.670m. Heavy Showers Snow . Broken Clouds 400ft. Broken Clouds 1100ft.
From till Wind 220º 6kt. Visibility 10km or more. Broken Clouds 1600ft.
From till Wind 120º 6kt. Gust 16kt. Visibility 6000m. Light Showers Snow . Broken Clouds 1100ft.
Temporarly from till Wind 100º 8kt. Gust 19kt. Visibility 997.791m. Showers Snow . Broken Clouds 500ft. Broken Clouds 1000ft.

Nyers: TAF ULAA 250500Z 2506/2606 25004G09MPS 6000 -SHSN BKN005 BKN016CB TEMPO 2506/2509 21005G12MPS 0800 +SHSN BKN004 BKN011CB FM250900 22003MPS 9999 BKN016CB FM252100 12003G08MPS 6000 -SHSN BKN011CB TEMPO 2521/2606 10004G10MPS 1000 SHSN BKN005 BKN010CB

Aktuális műholdas és esőképek ezen a helyen: 64.6°É 40.72°K

A helyszín jelölő a következő helyen van elhelyezve: 64.6°É 40.72°K. [Több]

A valós idejű műholdas kép ötvözi a nappali látható fényt az éjszakai infravörös sugárzással. Éjjel a kép nem sötét, mivel az infravörös sugárzás képes érzékelni a hőmérséklet-különbségeket. Sajnos az alacsony felhőket és a ködöt nehéz megkülönböztetni a talaj hőmérsékletétől, így az éjszaka folyamán szinte láthatatlanok lehetnek. A Meteosat európai műholdképei valós időben frissülnek minden 5 percben. A GOES-16/GOES-17 (Észak- és Dél-Amerika) és Himawari (Ázsia) képei 10 percenként frissülnek.

Minden jog fenntartva 2021 EUMETSAT / meteoblue. / Minden jog fenntartva 2021 meteoblue

Radarkép és ultrarövid távú csapadék-előrejelzés a következő helyhez: 64.6°É 40.72°K

Szitáló eső
Enyhe
Mérsékelt
Erős
Nagyon nehéz
Jégeső

A helyzetjelző helye: 64.6°É 40.72°K. Ez az animáció bemutatja a csapadékradart az elmúlt órára vonatkozóan, valamint előrejelzést az elkövetkező 1 órára. A szitáló eső vagy enyhe hóesés láthatatlan lehet a radar számára. A csapadék intenzitása színkóddal van jelölve, a világoskéktől a narancssárgáig.